Terminal Aerodrome Forecast
Issued by NWS Nashville, TN

Home | Current Version | Previous Version | Text Only | Print | Product List | Glossary On
Versions: 1 2 3 4 5 6 7 8 9 10 11 12 13 14
458
FTUS44 KOHX 242210 AAB
TAFBNA
TAF AMD
KBNA 242210Z 2422/2518 32009KT P6SM SCT030 BKN080 BKN100
     FM250400 23005KT P6SM BKN100 OVC250
     FM251000 27008KT 6SM BR OVC015
     FM251400 28010G16KT P6SM BKN020=

USA.gov is the U.S. government's official web portal to all federal, state and local government web resources and services.